Terminal Aerodrome Forecast
Issued by NWS Cheyenne, WY

Home | Current Version | Previous Version | Text Only | Print | Product List | Glossary On
Versions: 1 2 3 4 5 6 7 8 9 10 11 12 13 14 15 16
000
FTUS45 KCYS 221730
TAFCYS
TAF
KCYS 221730Z 2218/2318 03020G30KT P6SM FEW100
     FM222200 02012G25KT P6SM VCTS BKN100CB
     FM230300 09013KT P6SM VCSH BKN040
     FM230900 04010KT P6SM BKN015=

USA.gov is the U.S. government's official web portal to all federal, state and local government web resources and services.